sensor_id;sensor_type;location;lat;lon;timestamp;temperature;humidity
1800;DHT22;919;48.274;12.292;2023-01-23T00:00:53;-4.50;99.90
1800;DHT22;919;48.274;12.292;2023-01-23T00:03:20;-4.40;99.90
1800;DHT22;919;48.274;12.292;2023-01-23T00:05:55;-4.30;99.90
1800;DHT22;919;48.274;12.292;2023-01-23T00:08:22;-4.20;99.90
1800;DHT22;919;48.274;12.292;2023-01-23T00:10:49;-4.20;99.90
1800;DHT22;919;48.274;12.292;2023-01-23T00:13:15;-4.20;99.90
1800;DHT22;919;48.274;12.292;2023-01-23T00:15:43;-4.20;99.90
1800;DHT22;919;48.274;12.292;2023-01-23T00:18:10;-4.10;99.90
1800;DHT22;919;48.274;12.292;2023-01-23T00:20:37;-4.10;99.90
1800;DHT22;919;48.274;12.292;2023-01-23T00:23:04;-4.10;99.90
1800;DHT22;919;48.274;12.292;2023-01-23T00:25:32;-4.10;99.90
1800;DHT22;919;48.274;12.292;2023-01-23T00:27:58;-4.00;99.90
1800;DHT22;919;48.274;12.292;2023-01-23T00:30:25;-4.00;99.90
1800;DHT22;919;48.274;12.292;2023-01-23T00:32:53;-4.00;99.90
1800;DHT22;919;48.274;12.292;2023-01-23T00:35:20;-3.90;99.90
1800;DHT22;919;48.274;12.292;2023-01-23T00:37:47;-3.90;99.90
1800;DHT22;919;48.274;12.292;2023-01-23T00:40:13;-3.90;99.90
1800;DHT22;919;48.274;12.292;2023-01-23T00:42:40;-3.80;99.90
1800;DHT22;919;48.274;12.292;2023-01-23T00:45:07;-3.80;99.90
1800;DHT22;919;48.274;12.292;2023-01-23T00:47:34;-3.80;99.90
1800;DHT22;919;48.274;12.292;2023-01-23T00:50:02;-3.80;99.90
1800;DHT22;919;48.274;12.292;2023-01-23T00:52:29;-3.80;99.90
1800;DHT22;919;48.274;12.292;2023-01-23T00:54:56;-3.70;99.90
1800;DHT22;919;48.274;12.292;2023-01-23T00:57:22;-3.70;99.90
1800;DHT22;919;48.274;12.292;2023-01-23T00:59:49;-3.70;99.90
1800;DHT22;919;48.274;12.292;2023-01-23T01:02:16;-3.70;99.90
1800;DHT22;919;48.274;12.292;2023-01-23T01:04:42;-3.70;99.90
1800;DHT22;919;48.274;12.292;2023-01-23T01:07:10;-3.70;99.90
1800;DHT22;919;48.274;12.292;2023-01-23T01:09:37;-3.70;99.90
1800;DHT22;919;48.274;12.292;2023-01-23T01:12:04;-3.70;99.90
1800;DHT22;919;48.274;12.292;2023-01-23T01:14:31;-3.60;99.90
1800;DHT22;919;48.274;12.292;2023-01-23T01:16:57;-3.60;99.90
1800;DHT22;919;48.274;12.292;2023-01-23T01:19:24;-3.60;99.90
1800;DHT22;919;48.274;12.292;2023-01-23T01:21:52;-3.50;99.90
1800;DHT22;919;48.274;12.292;2023-01-23T01:24:20;-3.50;99.90
1800;DHT22;919;48.274;12.292;2023-01-23T01:26:47;-3.50;99.90
1800;DHT22;919;48.274;12.292;2023-01-23T01:29:14;-3.50;99.90
1800;DHT22;919;48.274;12.292;2023-01-23T01:31:40;-3.50;99.90
1800;DHT22;919;48.274;12.292;2023-01-23T01:34:07;-3.40;99.90
1800;DHT22;919;48.274;12.292;2023-01-23T01:36:34;-3.40;99.90
1800;DHT22;919;48.274;12.292;2023-01-23T01:39:00;-3.40;99.90
1800;DHT22;919;48.274;12.292;2023-01-23T01:41:28;-3.40;99.90
1800;DHT22;919;48.274;12.292;2023-01-23T01:43:55;-3.40;99.90
1800;DHT22;919;48.274;12.292;2023-01-23T01:46:25;-3.40;99.90
1800;DHT22;919;48.274;12.292;2023-01-23T01:49:05;-3.40;99.90
1800;DHT22;919;48.274;12.292;2023-01-23T01:51:36;-3.40;99.90
1800;DHT22;919;48.274;12.292;2023-01-23T01:54:10;-3.40;99.90
1800;DHT22;919;48.274;12.292;2023-01-23T01:56:44;-3.30;99.90
1800;DHT22;919;48.274;12.292;2023-01-23T01:59:13;-3.30;99.90
1800;DHT22;919;48.274;12.292;2023-01-23T02:01:41;-3.20;99.90
1800;DHT22;919;48.274;12.292;2023-01-23T02:04:10;-3.20;99.90
1800;DHT22;919;48.274;12.292;2023-01-23T02:06:37;-3.20;99.90
1800;DHT22;919;48.274;12.292;2023-01-23T02:09:07;-3.20;99.90
1800;DHT22;919;48.274;12.292;2023-01-23T02:11:36;-3.20;99.90
1800;DHT22;919;48.274;12.292;2023-01-23T02:14:04;-3.10;99.90
1800;DHT22;919;48.274;12.292;2023-01-23T02:16:35;-3.10;99.90
1800;DHT22;919;48.274;12.292;2023-01-23T02:19:21;-3.00;99.90
1800;DHT22;919;48.274;12.292;2023-01-23T02:21:55;-3.00;99.90
1800;DHT22;919;48.274;12.292;2023-01-23T02:24:30;-3.00;99.90
1800;DHT22;919;48.274;12.292;2023-01-23T02:27:00;-3.00;99.90
1800;DHT22;919;48.274;12.292;2023-01-23T02:29:39;-3.00;99.90
1800;DHT22;919;48.274;12.292;2023-01-23T02:32:06;-3.10;99.90
1800;DHT22;919;48.274;12.292;2023-01-23T02:34:32;-3.10;99.90
1800;DHT22;919;48.274;12.292;2023-01-23T02:36:59;-3.10;99.90
1800;DHT22;919;48.274;12.292;2023-01-23T02:39:26;-3.00;99.90
1800;DHT22;919;48.274;12.292;2023-01-23T02:41:54;-3.00;99.90
1800;DHT22;919;48.274;12.292;2023-01-23T02:44:24;-3.00;99.90
1800;DHT22;919;48.274;12.292;2023-01-23T02:46:52;-2.90;99.90
1800;DHT22;919;48.274;12.292;2023-01-23T02:49:19;-2.90;99.90
1800;DHT22;919;48.274;12.292;2023-01-23T02:51:46;-2.90;99.90
1800;DHT22;919;48.274;12.292;2023-01-23T02:54:13;-2.90;99.90
1800;DHT22;919;48.274;12.292;2023-01-23T02:56:39;-2.90;99.90
1800;DHT22;919;48.274;12.292;2023-01-23T02:59:07;-2.80;99.90
1800;DHT22;919;48.274;12.292;2023-01-23T03:01:52;-2.80;99.90
1800;DHT22;919;48.274;12.292;2023-01-23T03:04:19;-2.80;99.90
1800;DHT22;919;48.274;12.292;2023-01-23T03:06:46;-2.80;99.90
1800;DHT22;919;48.274;12.292;2023-01-23T03:09:15;-2.80;99.90
1800;DHT22;919;48.274;12.292;2023-01-23T03:11:43;-2.70;99.90
1800;DHT22;919;48.274;12.292;2023-01-23T03:14:12;-2.70;99.90
1800;DHT22;919;48.274;12.292;2023-01-23T03:16:39;-2.70;99.90
1800;DHT22;919;48.274;12.292;2023-01-23T03:19:09;-2.70;99.90
1800;DHT22;919;48.274;12.292;2023-01-23T03:21:38;-2.70;99.90
1800;DHT22;919;48.274;12.292;2023-01-23T03:24:06;-2.70;99.90
1800;DHT22;919;48.274;12.292;2023-01-23T03:26:33;-2.70;99.90
1800;DHT22;919;48.274;12.292;2023-01-23T03:29:00;-2.70;99.90
1800;DHT22;919;48.274;12.292;2023-01-23T03:31:44;-2.60;99.90
1800;DHT22;919;48.274;12.292;2023-01-23T03:34:12;-2.60;99.90
1800;DHT22;919;48.274;12.292;2023-01-23T03:36:39;-2.60;99.90
1800;DHT22;919;48.274;12.292;2023-01-23T03:39:07;-2.60;99.90
1800;DHT22;919;48.274;12.292;2023-01-23T03:41:51;-2.60;99.90
1800;DHT22;919;48.274;12.292;2023-01-23T03:44:18;-2.60;99.90
1800;DHT22;919;48.274;12.292;2023-01-23T03:46:45;-2.60;99.90
1800;DHT22;919;48.274;12.292;2023-01-23T03:49:14;-2.60;99.90
1800;DHT22;919;48.274;12.292;2023-01-23T03:51:41;-2.60;99.90
1800;DHT22;919;48.274;12.292;2023-01-23T03:54:07;-2.60;99.90
1800;DHT22;919;48.274;12.292;2023-01-23T03:56:34;-2.50;99.90
1800;DHT22;919;48.274;12.292;2023-01-23T03:59:01;-2.50;99.90
1800;DHT22;919;48.274;12.292;2023-01-23T04:01:28;-2.50;99.90
1800;DHT22;919;48.274;12.292;2023-01-23T04:03:55;-2.40;99.90
1800;DHT22;919;48.274;12.292;2023-01-23T04:06:23;-2.50;99.90
1800;DHT22;919;48.274;12.292;2023-01-23T04:08:49;-2.40;99.90
1800;DHT22;919;48.274;12.292;2023-01-23T04:11:16;-2.50;99.90
1800;DHT22;919;48.274;12.292;2023-01-23T04:13:44;-2.40;99.90
1800;DHT22;919;48.274;12.292;2023-01-23T04:16:11;-2.40;99.90
1800;DHT22;919;48.274;12.292;2023-01-23T04:18:38;-2.40;99.90
1800;DHT22;919;48.274;12.292;2023-01-23T04:21:05;-2.40;99.90
1800;DHT22;919;48.274;12.292;2023-01-23T04:23:33;-2.40;99.90
1800;DHT22;919;48.274;12.292;2023-01-23T04:26:00;-2.40;99.90
1800;DHT22;919;48.274;12.292;2023-01-23T04:28:26;-2.40;99.90
1800;DHT22;919;48.274;12.292;2023-01-23T04:30:53;-2.40;99.90
1800;DHT22;919;48.274;12.292;2023-01-23T04:33:20;-2.40;99.90
1800;DHT22;919;48.274;12.292;2023-01-23T04:35:52;-2.40;99.90
1800;DHT22;919;48.274;12.292;2023-01-23T04:38:19;-2.40;99.90
1800;DHT22;919;48.274;12.292;2023-01-23T04:40:47;-2.30;99.90
1800;DHT22;919;48.274;12.292;2023-01-23T04:43:14;-2.30;99.90
1800;DHT22;919;48.274;12.292;2023-01-23T04:45:41;-2.30;99.90
1800;DHT22;919;48.274;12.292;2023-01-23T04:48:08;-2.30;99.90
1800;DHT22;919;48.274;12.292;2023-01-23T04:50:35;-2.30;99.90
1800;DHT22;919;48.274;12.292;2023-01-23T04:53:02;-2.30;99.90
1800;DHT22;919;48.274;12.292;2023-01-23T04:55:28;-2.30;99.90
1800;DHT22;919;48.274;12.292;2023-01-23T04:57:56;-2.20;99.90
1800;DHT22;919;48.274;12.292;2023-01-23T05:00:23;-2.20;99.90
1800;DHT22;919;48.274;12.292;2023-01-23T05:02:50;-2.20;99.90
1800;DHT22;919;48.274;12.292;2023-01-23T05:05:17;-2.20;99.90
1800;DHT22;919;48.274;12.292;2023-01-23T05:07:45;-2.20;99.90
1800;DHT22;919;48.274;12.292;2023-01-23T05:10:13;-2.20;99.90
1800;DHT22;919;48.274;12.292;2023-01-23T05:12:40;-2.20;99.90
1800;DHT22;919;48.274;12.292;2023-01-23T05:15:09;-2.20;99.90
1800;DHT22;919;48.274;12.292;2023-01-23T05:17:36;-2.10;99.90
1800;DHT22;919;48.274;12.292;2023-01-23T05:20:04;-2.10;99.90
1800;DHT22;919;48.274;12.292;2023-01-23T05:22:31;-2.10;99.90
1800;DHT22;919;48.274;12.292;2023-01-23T05:24:58;-2.10;99.90
1800;DHT22;919;48.274;12.292;2023-01-23T05:27:24;-2.10;99.90
1800;DHT22;919;48.274;12.292;2023-01-23T05:29:51;-2.10;99.90
1800;DHT22;919;48.274;12.292;2023-01-23T05:32:19;-2.10;99.90
1800;DHT22;919;48.274;12.292;2023-01-23T05:34:46;-2.10;99.90
1800;DHT22;919;48.274;12.292;2023-01-23T05:37:12;-2.10;99.90
1800;DHT22;919;48.274;12.292;2023-01-23T05:39:39;-2.10;99.90
1800;DHT22;919;48.274;12.292;2023-01-23T05:42:06;-2.00;99.90
1800;DHT22;919;48.274;12.292;2023-01-23T05:44:32;-2.00;99.90
1800;DHT22;919;48.274;12.292;2023-01-23T05:46:59;-2.00;99.90
1800;DHT22;919;48.274;12.292;2023-01-23T05:49:27;-2.00;99.90
1800;DHT22;919;48.274;12.292;2023-01-23T05:51:54;-2.00;99.90
1800;DHT22;919;48.274;12.292;2023-01-23T05:54:20;-2.00;99.90
1800;DHT22;919;48.274;12.292;2023-01-23T05:56:47;-2.00;99.90
1800;DHT22;919;48.274;12.292;2023-01-23T05:59:14;-2.00;99.90
1800;DHT22;919;48.274;12.292;2023-01-23T06:01:40;-2.00;99.90
1800;DHT22;919;48.274;12.292;2023-01-23T06:04:07;-2.00;99.90
1800;DHT22;919;48.274;12.292;2023-01-23T06:06:35;-2.00;99.90
1800;DHT22;919;48.274;12.292;2023-01-23T06:09:02;-2.00;99.90
1800;DHT22;919;48.274;12.292;2023-01-23T06:11:28;-2.00;99.90
1800;DHT22;919;48.274;12.292;2023-01-23T06:13:55;-2.00;99.90
1800;DHT22;919;48.274;12.292;2023-01-23T06:16:22;-2.00;99.90
1800;DHT22;919;48.274;12.292;2023-01-23T06:18:48;-1.90;99.90
1800;DHT22;919;48.274;12.292;2023-01-23T06:21:15;-1.90;99.90
1800;DHT22;919;48.274;12.292;2023-01-23T06:23:44;-1.90;99.90
1800;DHT22;919;48.274;12.292;2023-01-23T06:26:11;-1.90;99.90
1800;DHT22;919;48.274;12.292;2023-01-23T06:28:38;-1.90;99.90
1800;DHT22;919;48.274;12.292;2023-01-23T06:31:05;-1.90;99.90
1800;DHT22;919;48.274;12.292;2023-01-23T06:33:34;-1.90;99.90
1800;DHT22;919;48.274;12.292;2023-01-23T06:36:03;-1.90;99.90
1800;DHT22;919;48.274;12.292;2023-01-23T06:38:31;-1.90;99.90
1800;DHT22;919;48.274;12.292;2023-01-23T06:40:59;-1.90;99.90
1800;DHT22;919;48.274;12.292;2023-01-23T06:43:26;-1.90;99.90
1800;DHT22;919;48.274;12.292;2023-01-23T06:45:53;-1.90;99.90
1800;DHT22;919;48.274;12.292;2023-01-23T06:48:20;-1.90;99.90
1800;DHT22;919;48.274;12.292;2023-01-23T06:50:47;-1.90;99.90
1800;DHT22;919;48.274;12.292;2023-01-23T06:53:14;-1.80;99.90
1800;DHT22;919;48.274;12.292;2023-01-23T06:55:41;-1.80;99.90
1800;DHT22;919;48.274;12.292;2023-01-23T06:58:09;-1.80;99.90
1800;DHT22;919;48.274;12.292;2023-01-23T07:00:36;-1.80;99.90
1800;DHT22;919;48.274;12.292;2023-01-23T07:03:04;-1.80;99.90
1800;DHT22;919;48.274;12.292;2023-01-23T07:05:34;-1.70;99.90
1800;DHT22;919;48.274;12.292;2023-01-23T07:08:01;-1.70;99.90
1800;DHT22;919;48.274;12.292;2023-01-23T07:10:28;-1.60;99.90
1800;DHT22;919;48.274;12.292;2023-01-23T07:12:56;-1.70;99.90
1800;DHT22;919;48.274;12.292;2023-01-23T07:15:24;-1.60;99.90
1800;DHT22;919;48.274;12.292;2023-01-23T07:17:51;-1.60;99.90
1800;DHT22;919;48.274;12.292;2023-01-23T07:20:18;-1.60;99.90
1800;DHT22;919;48.274;12.292;2023-01-23T07:22:45;-1.50;99.90
1800;DHT22;919;48.274;12.292;2023-01-23T07:25:12;-1.50;99.90
1800;DHT22;919;48.274;12.292;2023-01-23T07:27:38;-1.50;99.90
1800;DHT22;919;48.274;12.292;2023-01-23T07:30:06;-1.40;99.90
1800;DHT22;919;48.274;12.292;2023-01-23T07:32:34;-1.40;99.90
1800;DHT22;919;48.274;12.292;2023-01-23T07:35:01;-1.40;99.90
1800;DHT22;919;48.274;12.292;2023-01-23T07:37:28;-1.40;99.90
1800;DHT22;919;48.274;12.292;2023-01-23T07:39:54;-1.40;99.90
1800;DHT22;919;48.274;12.292;2023-01-23T07:42:21;-1.40;99.90
1800;DHT22;919;48.274;12.292;2023-01-23T07:44:48;-1.40;99.90
1800;DHT22;919;48.274;12.292;2023-01-23T07:47:15;-1.30;99.90
1800;DHT22;919;48.274;12.292;2023-01-23T07:49:43;-1.30;99.90
1800;DHT22;919;48.274;12.292;2023-01-23T07:52:09;-1.20;99.90
1800;DHT22;919;48.274;12.292;2023-01-23T07:54:36;-1.20;99.90
1800;DHT22;919;48.274;12.292;2023-01-23T07:57:03;-1.10;99.90
1800;DHT22;919;48.274;12.292;2023-01-23T07:59:30;-1.00;99.90
1800;DHT22;919;48.274;12.292;2023-01-23T08:01:56;-0.90;99.90
1800;DHT22;919;48.274;12.292;2023-01-23T08:04:23;-0.90;99.90
1800;DHT22;919;48.274;12.292;2023-01-23T08:06:51;-0.80;99.90
1800;DHT22;919;48.274;12.292;2023-01-23T08:09:18;-0.70;99.90
1800;DHT22;919;48.274;12.292;2023-01-23T08:11:45;-0.70;99.90
1800;DHT22;919;48.274;12.292;2023-01-23T08:14:11;-0.60;99.90
1800;DHT22;919;48.274;12.292;2023-01-23T08:16:38;-0.50;99.90
1800;DHT22;919;48.274;12.292;2023-01-23T08:19:05;-0.40;99.90
1800;DHT22;919;48.274;12.292;2023-01-23T08:21:32;-0.40;99.90
1800;DHT22;919;48.274;12.292;2023-01-23T08:24:01;-0.30;99.90
1800;DHT22;919;48.274;12.292;2023-01-23T08:26:29;-0.30;99.90
1800;DHT22;919;48.274;12.292;2023-01-23T08:28:55;-0.20;99.90
1800;DHT22;919;48.274;12.292;2023-01-23T08:31:22;-0.20;99.90
1800;DHT22;919;48.274;12.292;2023-01-23T08:33:49;-0.20;99.90
1800;DHT22;919;48.274;12.292;2023-01-23T08:36:16;-0.10;99.90
1800;DHT22;919;48.274;12.292;2023-01-23T08:38:42;-0.10;99.90
1800;DHT22;919;48.274;12.292;2023-01-23T08:41:10;-0.10;99.90
1800;DHT22;919;48.274;12.292;2023-01-23T08:43:37;0.00;99.90
1800;DHT22;919;48.274;12.292;2023-01-23T08:46:06;0.00;99.90
1800;DHT22;919;48.274;12.292;2023-01-23T08:48:33;0.10;99.90
1800;DHT22;919;48.274;12.292;2023-01-23T08:51:02;0.10;99.90
1800;DHT22;919;48.274;12.292;2023-01-23T08:53:30;0.20;99.90
1800;DHT22;919;48.274;12.292;2023-01-23T08:56:00;0.30;99.90
1800;DHT22;919;48.274;12.292;2023-01-23T08:58:28;0.40;99.90
1800;DHT22;919;48.274;12.292;2023-01-23T09:00:55;0.40;99.90
1800;DHT22;919;48.274;12.292;2023-01-23T09:03:22;0.50;99.90
1800;DHT22;919;48.274;12.292;2023-01-23T09:05:48;0.70;99.90
1800;DHT22;919;48.274;12.292;2023-01-23T09:08:15;0.80;99.90
1800;DHT22;919;48.274;12.292;2023-01-23T09:10:42;0.90;99.90
1800;DHT22;919;48.274;12.292;2023-01-23T09:13:09;1.10;99.90
1800;DHT22;919;48.274;12.292;2023-01-23T09:15:38;1.30;99.90
1800;DHT22;919;48.274;12.292;2023-01-23T09:18:05;1.50;99.90
1800;DHT22;919;48.274;12.292;2023-01-23T09:20:32;1.50;99.90
1800;DHT22;919;48.274;12.292;2023-01-23T09:22:59;1.50;99.90
1800;DHT22;919;48.274;12.292;2023-01-23T09:25:25;1.40;99.90
1800;DHT22;919;48.274;12.292;2023-01-23T09:27:52;1.40;99.90
1800;DHT22;919;48.274;12.292;2023-01-23T09:30:19;1.30;99.90
1800;DHT22;919;48.274;12.292;2023-01-23T09:32:47;1.00;99.90
1800;DHT22;919;48.274;12.292;2023-01-23T09:35:14;1.00;99.90
1800;DHT22;919;48.274;12.292;2023-01-23T09:37:40;0.90;99.90
1800;DHT22;919;48.274;12.292;2023-01-23T09:40:28;1.00;99.90
1800;DHT22;919;48.274;12.292;2023-01-23T09:42:59;1.10;99.90
1800;DHT22;919;48.274;12.292;2023-01-23T09:45:28;1.30;99.90
1800;DHT22;919;48.274;12.292;2023-01-23T09:48:11;1.30;99.90
1800;DHT22;919;48.274;12.292;2023-01-23T09:50:51;1.20;99.90
1800;DHT22;919;48.274;12.292;2023-01-23T09:53:22;1.20;99.90
1800;DHT22;919;48.274;12.292;2023-01-23T09:55:56;1.20;99.90
1800;DHT22;919;48.274;12.292;2023-01-23T09:58:27;1.30;99.90
1800;DHT22;919;48.274;12.292;2023-01-23T10:00:56;1.20;99.90
1800;DHT22;919;48.274;12.292;2023-01-23T10:03:28;1.30;99.90
1800;DHT22;919;48.274;12.292;2023-01-23T10:06:04;1.30;99.90
1800;DHT22;919;48.274;12.292;2023-01-23T10:08:38;1.30;99.90
1800;DHT22;919;48.274;12.292;2023-01-23T10:11:12;1.40;99.90
1800;DHT22;919;48.274;12.292;2023-01-23T10:14:00;1.40;99.90
1800;DHT22;919;48.274;12.292;2023-01-23T10:16:48;1.40;99.90
1800;DHT22;919;48.274;12.292;2023-01-23T10:19:31;1.40;99.90
1800;DHT22;919;48.274;12.292;2023-01-23T10:22:04;1.30;99.90
1800;DHT22;919;48.274;12.292;2023-01-23T10:24:43;1.30;99.90
1800;DHT22;919;48.274;12.292;2023-01-23T10:27:17;1.40;99.90
1800;DHT22;919;48.274;12.292;2023-01-23T10:29:48;1.50;99.90
1800;DHT22;919;48.274;12.292;2023-01-23T10:32:25;1.60;99.90
1800;DHT22;919;48.274;12.292;2023-01-23T10:34:56;1.70;99.90
1800;DHT22;919;48.274;12.292;2023-01-23T10:37:39;1.80;99.90
1800;DHT22;919;48.274;12.292;2023-01-23T10:40:11;1.80;99.90
1800;DHT22;919;48.274;12.292;2023-01-23T10:42:38;1.90;99.90
1800;DHT22;919;48.274;12.292;2023-01-23T10:45:06;2.10;99.90
1800;DHT22;919;48.274;12.292;2023-01-23T10:47:41;2.40;99.90
1800;DHT22;919;48.274;12.292;2023-01-23T10:50:10;2.60;99.90
1800;DHT22;919;48.274;12.292;2023-01-23T10:52:39;2.70;99.90
1800;DHT22;919;48.274;12.292;2023-01-23T10:55:26;2.80;99.90
1800;DHT22;919;48.274;12.292;2023-01-23T10:57:55;2.80;99.90
1800;DHT22;919;48.274;12.292;2023-01-23T11:00:26;2.50;99.90
1800;DHT22;919;48.274;12.292;2023-01-23T11:02:53;2.40;99.90
1800;DHT22;919;48.274;12.292;2023-01-23T11:05:39;2.40;99.90
1800;DHT22;919;48.274;12.292;2023-01-23T11:08:22;2.40;99.90
1800;DHT22;919;48.274;12.292;2023-01-23T11:10:49;2.40;99.90
1800;DHT22;919;48.274;12.292;2023-01-23T11:13:25;2.40;99.90
1800;DHT22;919;48.274;12.292;2023-01-23T11:15:52;2.30;99.90
1800;DHT22;919;48.274;12.292;2023-01-23T11:18:30;2.20;99.90
1800;DHT22;919;48.274;12.292;2023-01-23T11:21:00;2.10;99.90
1800;DHT22;919;48.274;12.292;2023-01-23T11:23:28;2.10;99.90
1800;DHT22;919;48.274;12.292;2023-01-23T11:25:56;2.30;99.90
1800;DHT22;919;48.274;12.292;2023-01-23T11:28:24;2.50;99.90
1800;DHT22;919;48.274;12.292;2023-01-23T11:30:57;2.70;99.90
1800;DHT22;919;48.274;12.292;2023-01-23T11:33:38;2.80;99.90
1800;DHT22;919;48.274;12.292;2023-01-23T11:36:19;2.70;99.90
1800;DHT22;919;48.274;12.292;2023-01-23T11:38:51;2.50;99.90
1800;DHT22;919;48.274;12.292;2023-01-23T11:41:23;2.50;99.90
1800;DHT22;919;48.274;12.292;2023-01-23T11:43:53;2.50;99.90
1800;DHT22;919;48.274;12.292;2023-01-23T11:46:32;2.60;99.90
1800;DHT22;919;48.274;12.292;2023-01-23T11:49:29;2.70;99.90
1800;DHT22;919;48.274;12.292;2023-01-23T11:52:17;2.70;99.90
1800;DHT22;919;48.274;12.292;2023-01-23T11:55:08;2.80;99.90
1800;DHT22;919;48.274;12.292;2023-01-23T11:57:45;2.80;99.90
1800;DHT22;919;48.274;12.292;2023-01-23T12:00:23;2.80;99.90
1800;DHT22;919;48.274;12.292;2023-01-23T12:03:19;2.90;99.90
1800;DHT22;919;48.274;12.292;2023-01-23T12:06:09;3.00;99.90
1800;DHT22;919;48.274;12.292;2023-01-23T12:08:42;3.20;99.90
1800;DHT22;919;48.274;12.292;2023-01-23T12:11:14;3.20;99.90
1800;DHT22;919;48.274;12.292;2023-01-23T12:14:02;3.20;99.90
1800;DHT22;919;48.274;12.292;2023-01-23T12:16:45;3.20;99.90
1800;DHT22;919;48.274;12.292;2023-01-23T12:19:27;3.10;99.90
1800;DHT22;919;48.274;12.292;2023-01-23T12:22:06;3.20;99.90
1800;DHT22;919;48.274;12.292;2023-01-23T12:24:52;3.20;99.90
1800;DHT22;919;48.274;12.292;2023-01-23T12:27:26;3.10;99.90
1800;DHT22;919;48.274;12.292;2023-01-23T12:30:23;3.20;99.90
1800;DHT22;919;48.274;12.292;2023-01-23T12:32:59;3.10;99.90
1800;DHT22;919;48.274;12.292;2023-01-23T12:35:41;3.00;99.90
1800;DHT22;919;48.274;12.292;2023-01-23T12:38:23;3.10;99.90
1800;DHT22;919;48.274;12.292;2023-01-23T12:41:04;3.20;99.90
1800;DHT22;919;48.274;12.292;2023-01-23T12:43:37;3.20;99.90
1800;DHT22;919;48.274;12.292;2023-01-23T12:46:10;3.40;99.90
1800;DHT22;919;48.274;12.292;2023-01-23T12:48:41;3.50;99.90
1800;DHT22;919;48.274;12.292;2023-01-23T12:51:13;3.50;99.90
1800;DHT22;919;48.274;12.292;2023-01-23T12:53:40;3.50;99.90
1800;DHT22;919;48.274;12.292;2023-01-23T12:56:14;3.60;99.90
1800;DHT22;919;48.274;12.292;2023-01-23T12:58:48;3.50;99.90
1800;DHT22;919;48.274;12.292;2023-01-23T13:01:38;3.40;99.90
1800;DHT22;919;48.274;12.292;2023-01-23T13:04:17;3.10;99.90
1800;DHT22;919;48.274;12.292;2023-01-23T13:07:03;2.80;99.90
1800;DHT22;919;48.274;12.292;2023-01-23T13:09:44;2.50;99.90
1800;DHT22;919;48.274;12.292;2023-01-23T13:12:18;2.30;99.90
1800;DHT22;919;48.274;12.292;2023-01-23T13:14:51;2.20;99.90
1800;DHT22;919;48.274;12.292;2023-01-23T13:17:29;2.10;99.90
1800;DHT22;919;48.274;12.292;2023-01-23T13:20:18;2.00;99.90
1800;DHT22;919;48.274;12.292;2023-01-23T13:23:27;2.00;99.90
1800;DHT22;919;48.274;12.292;2023-01-23T13:26:24;1.90;99.90
1800;DHT22;919;48.274;12.292;2023-01-23T13:28:58;1.90;99.90
1800;DHT22;919;48.274;12.292;2023-01-23T13:31:38;1.90;99.90
1800;DHT22;919;48.274;12.292;2023-01-23T13:34:33;2.00;99.90
1800;DHT22;919;48.274;12.292;2023-01-23T13:40:21;2.00;99.90
1800;DHT22;919;48.274;12.292;2023-01-23T13:42:49;2.00;99.90
1800;DHT22;919;48.274;12.292;2023-01-23T13:45:28;2.00;99.90
1800;DHT22;919;48.274;12.292;2023-01-23T13:48:21;2.00;99.90
1800;DHT22;919;48.274;12.292;2023-01-23T13:51:18;1.90;99.90
1800;DHT22;919;48.274;12.292;2023-01-23T13:53:47;1.80;99.90
1800;DHT22;919;48.274;12.292;2023-01-23T13:56:32;1.80;99.90
1800;DHT22;919;48.274;12.292;2023-01-23T13:59:12;1.70;99.90
1800;DHT22;919;48.274;12.292;2023-01-23T14:01:48;1.70;99.90
1800;DHT22;919;48.274;12.292;2023-01-23T14:04:34;1.60;99.90
1800;DHT22;919;48.274;12.292;2023-01-23T14:07:25;1.50;99.90
1800;DHT22;919;48.274;12.292;2023-01-23T14:10:15;1.50;99.90
1800;DHT22;919;48.274;12.292;2023-01-23T14:12:42;1.60;99.90
1800;DHT22;919;48.274;12.292;2023-01-23T14:15:23;1.60;99.90
1800;DHT22;919;48.274;12.292;2023-01-23T14:18:27;1.50;99.90
1800;DHT22;919;48.274;12.292;2023-01-23T14:21:00;1.50;99.90
1800;DHT22;919;48.274;12.292;2023-01-23T14:23:31;1.50;99.90
1800;DHT22;919;48.274;12.292;2023-01-23T14:25:58;1.50;99.90
1800;DHT22;919;48.274;12.292;2023-01-23T14:28:25;1.50;99.90
1800;DHT22;919;48.274;12.292;2023-01-23T14:30:58;1.40;99.90
1800;DHT22;919;48.274;12.292;2023-01-23T14:33:27;1.40;99.90
1800;DHT22;919;48.274;12.292;2023-01-23T14:35:54;1.40;99.90
1800;DHT22;919;48.274;12.292;2023-01-23T14:38:27;1.40;99.90
1800;DHT22;919;48.274;12.292;2023-01-23T14:40:55;1.40;99.90
1800;DHT22;919;48.274;12.292;2023-01-23T14:43:23;1.30;99.90
1800;DHT22;919;48.274;12.292;2023-01-23T14:45:57;1.30;99.90
1800;DHT22;919;48.274;12.292;2023-01-23T14:48:26;1.30;99.90
1800;DHT22;919;48.274;12.292;2023-01-23T14:51:06;1.30;99.90
1800;DHT22;919;48.274;12.292;2023-01-23T14:53:38;1.30;99.90
1800;DHT22;919;48.274;12.292;2023-01-23T14:56:06;1.30;99.90
1800;DHT22;919;48.274;12.292;2023-01-23T14:58:34;1.30;99.90
1800;DHT22;919;48.274;12.292;2023-01-23T15:01:02;1.20;99.90
1800;DHT22;919;48.274;12.292;2023-01-23T15:03:39;1.30;99.90
1800;DHT22;919;48.274;12.292;2023-01-23T15:06:11;1.30;99.90
1800;DHT22;919;48.274;12.292;2023-01-23T15:08:39;1.20;99.90
1800;DHT22;919;48.274;12.292;2023-01-23T15:11:06;1.20;99.90
1800;DHT22;919;48.274;12.292;2023-01-23T15:13:41;1.20;99.90
1800;DHT22;919;48.274;12.292;2023-01-23T15:16:12;1.20;99.90
1800;DHT22;919;48.274;12.292;2023-01-23T15:18:55;1.20;99.90
1800;DHT22;919;48.274;12.292;2023-01-23T15:21:28;1.20;99.90
1800;DHT22;919;48.274;12.292;2023-01-23T15:24:02;1.20;99.90
1800;DHT22;919;48.274;12.292;2023-01-23T15:26:32;1.20;99.90
1800;DHT22;919;48.274;12.292;2023-01-23T15:29:01;1.20;99.90
1800;DHT22;919;48.274;12.292;2023-01-23T15:31:30;1.20;99.90
1800;DHT22;919;48.274;12.292;2023-01-23T15:34:16;1.20;99.90
1800;DHT22;919;48.274;12.292;2023-01-23T15:36:45;1.20;99.90
1800;DHT22;919;48.274;12.292;2023-01-23T15:39:16;1.10;99.90
1800;DHT22;919;48.274;12.292;2023-01-23T15:41:47;1.10;99.90
1800;DHT22;919;48.274;12.292;2023-01-23T15:44:15;1.10;99.90
1800;DHT22;919;48.274;12.292;2023-01-23T15:46:42;1.10;99.90
1800;DHT22;919;48.274;12.292;2023-01-23T15:49:10;1.10;99.90
1800;DHT22;919;48.274;12.292;2023-01-23T15:51:37;1.10;99.90
1800;DHT22;919;48.274;12.292;2023-01-23T15:54:04;1.10;99.90
1800;DHT22;919;48.274;12.292;2023-01-23T15:56:32;1.00;99.90
1800;DHT22;919;48.274;12.292;2023-01-23T15:59:00;1.10;99.90
1800;DHT22;919;48.274;12.292;2023-01-23T16:01:27;1.00;99.90
1800;DHT22;919;48.274;12.292;2023-01-23T16:03:54;1.10;99.90
1800;DHT22;919;48.274;12.292;2023-01-23T16:06:23;1.10;99.90
1800;DHT22;919;48.274;12.292;2023-01-23T16:08:51;1.00;99.90
1800;DHT22;919;48.274;12.292;2023-01-23T16:11:18;1.00;99.90
1800;DHT22;919;48.274;12.292;2023-01-23T16:13:45;1.00;99.90
1800;DHT22;919;48.274;12.292;2023-01-23T16:16:13;1.00;99.90
1800;DHT22;919;48.274;12.292;2023-01-23T16:18:40;1.00;99.90
1800;DHT22;919;48.274;12.292;2023-01-23T16:21:09;1.00;99.90
1800;DHT22;919;48.274;12.292;2023-01-23T16:23:39;1.00;99.90
1800;DHT22;919;48.274;12.292;2023-01-23T16:26:10;1.00;99.90
1800;DHT22;919;48.274;12.292;2023-01-23T16:28:40;1.00;99.90
1800;DHT22;919;48.274;12.292;2023-01-23T16:31:08;1.00;99.90
1800;DHT22;919;48.274;12.292;2023-01-23T16:33:35;1.00;99.90
1800;DHT22;919;48.274;12.292;2023-01-23T16:36:02;1.00;99.90